Accueil
METAR-TAF:

METAR-TAF

Aéroports :

Istres, France

Base aérienne 125 Istres-Le Tubé

latitude: 43-31N, longitude: 004-56E, altitude: 23 m

Observation

Le bulletin a été fait il y a 34 minutes, à 17:00 UTC
Vent 8 kt de sud
Température 20°C
Humidité 64%
Pression 1018 hPa
Visibilité 10 km ou plus
pas de nuages en-dessous de 1500 mètres et pas de cumulonimbus.

METAR: LFMI 211700Z AUTO 18008KT CAVOK 20/13 Q1018 TEMPO BKN014

Heure: 19:34 (17:34 UTC)

Prévision

Le bulletin a été fait il y a 3 heures et 34 minutes, à 14:00 UTC
Prévision valable du 21 à 15 UTC au 22 à 15 UTC
Vent 13 kt de sud
Visibilité 10 km ou plus
pas de nuages en-dessous de 1500 mètres et pas de cumulonimbus.
Temporairement
du 21 à 18 UTC au 22 à 09 UTC
Vent 3 kt de direction variable
Nuages fragmentés à une hauteur de 1400 ft

TAF: LFMI 211400Z 2115/2215 18013KT CAVOK TEMPO 2118/2209 VRB03KT BKN014

Observations et prévisions météorologiques de plus de 4000 aéroports (messages METAR et TAF).

Les stations disponibles sont représentées par des disques jaunes et rouges sur la carte.

Passer la souris dessus pour voir le nom de la station.

Cliquer dessus pour voir les observations et prévisions météorologiques.

Pour changer de carte: cliquez sur les boutons verts avec une croix noire pour zoomer, sur le bouton vert avec un tiret pour effectuer un zoom arrière, ou sur les flèches vertes pour les cartes adjacentes.


METAR-TAF: